Tiempo atmosférico en la estación meteorológica de Medina De Pomar, Burgos (580 m.)



Fecha
DESCASC
Temp. máxima en grados centígrados (hora)
DESCASC
Temp. mínima en grados centígrados (hora)
DESCASC
Temp. media en grados centígrados
DESCASC
Racha de viento máxima en m/sg (hora)
DESCASC
Velocidad máxima media en intervalos de 10 minutos(hora)
DESCASC
Precipitaciones diarias en mm
DESCASC
Precipitaciones de 00:00 a 06:00 en mm
DESCASC
Precipitaciones de 06:00 a 12:00 en mm
DESCASC
Precipitaciones de 12:00 a 18:00 en mm
DESCASC
Precipitaciones de 18:00 a 24:00 en mm
DESCASC
13-01-2021 5.8 (16:40) -5.7 (05:50) 0.1 3.89 (17:50) 1.94 (06:40) 0 0 0 0 0
12-01-2021 8.2 (16:40) -5.7 (07:40) 1.3 13.61 (00:30) 1.39 (10:10) 0 0 0 0 0
11-01-2021 3.9 (13:30) -0.2 (23:59) 1.9 9.72 (02:00) 4.72 (02:00) 0.2 0 0 0.2 0
10-01-2021 2.9 (15:00) -0.7 (00:00) 1.1 10.83 (16:10) 5.28 (19:20) 0.6 0.4 0 0.2 0
09-01-2021 0.8 (14:00) -2.3 (-00:0) -0.7 7.78 (14:20) 3.33 (14:20) 3 0 0 1.2 1.8
08-01-2021 2.9 (14:30) -6 (-00:0) -1.5 4.72 (22:20) 1.11 (05:10) 0 0 0 0 0
07-01-2021 -2.6 (15:20) -4.7 (-00:0) -3.6 4.44 (21:30) 1.67 (17:00) 0 0 0 0 0
06-01-2021 7.2 (16:00) -5.1 (-00:0) 1 3.89 (23:10) 2.5 (16:20) 0.2 0 0.2 0 0
05-01-2021 3.3 (16:00) -3.4 (-00:0) -0.1 4.72 (18:10) 2.22 (06:50) 1.6 0.4 1.2 0 0
04-01-2021 3.1 (15:20) -3.1 (-00:0) 0 6.94 (16:00) 3.33 (00:50) 5.2 0.4 2.2 2 0.6
03-01-2021 6 (13:50) -2.3 (-00:0) 1.9 7.22 (23:59) 3.33 (19:00) 2.6 0.4 2 0 0.2
02-01-2021 4.5 (16:30) -1.3 (-00:0) 1.6 11.39 (10:40) 4.17 (08:00) 16 2.8 4.8 8.4 0
01-01-2021 5.4 (11:40) -0.1 (00:00) 2.7 10.28 (17:40) 5 (15:20) 6.2 0.2 0 1.2 4.8
31-12-2020 7.2 (14:40) 1.7 (00:00) 4.4 10.83 (13:20) 5.28 (14:50) 2.4 0 0 2.2 0.2
30-12-2020 5.1 (14:00) 1.5 (00:00) 3.3 7.22 (01:30) 3.33 (00:40) 4.4 2 2 0.2 0.2
29-12-2020 6.8 (16:10) 1.1 (00:00) 4 14.72 (17:40) 6.11 (17:40) 4 0.2 0.2 0 3.6
28-12-2020 9 (16:10) 0.9 (00:00) 4.9 14.17 (05:20) 6.94 (14:50) 9.2 5.2 2 0.4 1.6
27-12-2020 7.3 (22:10) -1.6 (-00:0) 2.9 20.83 (20:50) 8.33 (20:40) 2.4 0 0 0.2 2.2
26-12-2020 5.7 (11:50) -1 (-00:0) 2.3 6.39 (12:50) 3.06 (04:10) 0 0 0 0 0
25-12-2020 6.3 (13:50) 1.3 (00:00) 3.8 8.89 (12:10) 4.44 (12:10) 5.8 1 3.4 0.8 0.6
24-12-2020 9.2 (13:10) 0.7 (00:00) 4.9 8.89 (18:20) 3.89 (18:20) 1 0 0 0 1
23-12-2020 15.1 (01:20) 6.7 (00:00) 10.9 12.78 (12:20) 5.56 (10:30) 0 0 0 0 0
22-12-2020 17 (16:20) 6.4 (00:00) 11.7 8.89 (16:10) 3.33 (23:59) 0.2 0 0 0.2 0
21-12-2020 13.3 (15:50) 9.1 (00:00) 11.2 9.72 (05:20) 4.72 (05:20) 1 0.8 0.2 0 0
20-12-2020 9.5 (14:30) 0.6 (00:00) 5.1 9.44 (23:10) 4.17 (22:30) 0 0 0 0 0
19-12-2020 12.9 (15:00) 3.7 (00:00) 8.3 10 (05:20) 4.72 (05:20) 0 0 0 0 0
18-12-2020 11.8 (15:00) -1.2 (-00:0) 5.3 10 (21:10) 4.17 (16:30) 0 0 0 0 0

Gráficas

Temp. máximas Temp. mínimas Temp. medias Precipitaciones Rachas de viento máximas Velocidades máximas media en intervalos de 10 minutos

Datos horarios

Fecha y hora oficial Temperatura (ºC) Velocidad del viento (km/h) Dirección del viento Racha (km/h) Dirección de racha Precipitación (mm) Presión (hPa) Tendencia (hPa) Humedad (%)
2021-01-16 23:00:00 -0.9 5 Sudeste 10 Sudeste 0 962.2 0.2 94
2021-01-16 22:00:00 -0.7 6 Sur 9 Sur 0 962 0.5 93
2021-01-16 21:00:00 -0.2 3 Nordeste 7 Este 0 962 0.8 93
2021-01-16 20:00:00 0.1 0 Calma 6 Norte 0 962 0.9 91
2021-01-16 19:00:00 0.5 2 Sudeste 13 Nordeste 0 961.5 0.4 90
2021-01-16 18:00:00 1.5 4 Sur 9 Sudeste 0 961.2 -0.1 87
2021-01-16 17:00:00 2 4 Nordeste 9 Nordeste 0 961.1 -0.7 84
2021-01-16 16:00:00 2 4 Sudeste 8 Sudeste 0 961.1 -1.5 82
2021-01-16 15:00:00 1.1 3 Sudoeste 9 Sur 0 961.3 -1.8 84
2021-01-16 14:00:00 0.5 4 Sudoeste 9 Sudoeste 0 961.8 -- 87
2021-01-16 13:00:00 -0.3 2 Este 6 Noroeste 0 962.6 -- 93
2021-01-16 12:00:00 -1.2 2 Oeste 7 Noroeste 0 963.1 -- 93
2021-01-16 11:00:00 -1.5 3 Oeste 6 Noroeste 0 963 -- 93
2021-01-16 10:00:00 -1.8 2 Oeste 7 Sudoeste 0 962.6 -- 93
2021-01-16 09:00:00 -1.9 2 Noroeste 5 Noroeste 0 962.3 -- 93
2021-01-16 08:00:00 -2.4 0 Calma 5 Nordeste 0 962.1 -- 93
2021-01-16 07:00:00 -3.3 2 Este 6 Nordeste 0 961.9 -- 93
2021-01-16 06:00:00 -3.7 2 Nordeste 6 Este 0 961.7 -- 93
2021-01-16 05:00:00 -3.4 2 Norte 8 Nordeste 0 961.8 -- 93
2021-01-16 04:00:00 -2.5 5 Nordeste 8 Norte 0 961.9 -- 93
2021-01-16 03:00:00 -2.6 0 Calma 13 Sudeste 0 961.7 -- 93
2021-01-16 02:00:00 -2 2 Nordeste 5 Norte 0 961.8 -- 92
2021-01-16 01:00:00 -1.8 0 Calma 6 Sudoeste 0 962.1 -- 91
2021-01-16 00:00:00 -0.8 0 Calma 8 Nordeste 0 962.4 -- 91
2021-01-15 23:00:00 -0.4 0 Calma 5 Nordeste 0 962.3 -- 89
2021-01-15 22:00:00 1.2 2 Norte 8 Oeste 0 962.2 -- 86
2021-01-15 21:00:00 2.2 3 Noroeste 11 Noroeste 0 962.1 -- 86
2021-01-15 20:00:00 2.3 2 Sudoeste 12 Nordeste 0 962.1 -- 81
2021-01-15 19:00:00 4.9 6 Norte 10 Norte 0 961.6 -- 71
2021-01-15 18:00:00 6.7 3 Norte 14 Sudeste 0 961.2 -- 63
2021-01-15 17:00:00 8.9 3 Sudoeste 10 Nordeste 0 961.2 -- 58
2021-01-15 16:00:00 8.2 3 Noroeste 15 Sudoeste 0 961.1 -- 59
2021-01-15 15:00:00 9.9 5 Este 15 Este 0 961.1 -- 55
2021-01-15 14:00:00 6.3 2 Sudoeste 18 Sudoeste 0 961.9 -- 83
2021-01-15 13:00:00 5.5 2 Sudoeste 5 Este 0 962.6 -- 83
2021-01-15 12:00:00 2.9 2 Sudeste 9 Sur 0 963 -- 93
2021-01-15 11:00:00 0.8 3 Sudeste 16 Sudeste 0 962.8 -- 94
2021-01-15 10:00:00 -0.2 0 Calma 5 Sur 0 962.3 -- 94
2021-01-15 09:00:00 -0.7 0 Calma 5 Sur 0 961.9 -- 94
2021-01-15 08:00:00 -0.9 0 Calma 5 Sur 0 961.7 -- 94
2021-01-15 07:00:00 -0.7 3 Sudeste 8 Nordeste 0 961.3 -- 94
2021-01-15 06:00:00 -1.2 0 Calma 7 Oeste 0 961.4 -- 94
2021-01-15 05:00:00 -1.3 3 Sur 9 Sudeste 0 961.4 -- 94
2021-01-15 04:00:00 -1 3 Sur 6 Sur 0 961.7 -- 94
2021-01-15 03:00:00 -1.3 3 Sudeste 15 Sudeste 0 961.2 -- 93
2021-01-15 02:00:00 -1.3 3 Sur 7 Sur 0 961.3 -- 93
2021-01-15 01:00:00 -0.3 0 Calma 4 Nordeste 0 961.4 -- 93
2021-01-15 00:00:00 0.1 2 Sudeste 5 Sudoeste 0 961.4 -- 92
2021-01-14 23:00:00 0.7 0 Calma 5 Norte 0 961.5 -- 92
2021-01-14 22:00:00 1.1 0 Calma 6 Nordeste 0 961.1 -- 91
2021-01-14 21:00:00 1.1 0 Calma 4 Oeste 0 960.8 -- 90
2021-01-14 20:00:00 1.2 0 Calma 5 Nordeste 0 960.9 -- 89
2021-01-14 19:00:00 1.4 0 Calma 4 Nordeste 0 960.5 -- 86
2021-01-14 18:00:00 2 2 Sudoeste 7 Sudeste 0 960.8 -- 82
2021-01-14 17:00:00 2.4 3 Este 8 Sudeste 0 960.8 -- 80
2021-01-14 16:00:00 2.1 5 Sudeste 9 Sudeste 0 960.8 -- 80
2021-01-14 15:00:00 1.5 3 Sudeste 16 Sudeste 0 961 -- 82
2021-01-14 14:00:00 0.6 2 Este 9 Sudeste 0 961.7 -- 86
2021-01-14 13:00:00 -0.8 5 Sudeste 8 Sudeste 0 962.5 -- 91
2021-01-14 12:00:00 -2 0 Calma 4 Sur 0 963.2 -- 93
2021-01-14 11:00:00 -3.2 2 Sur 11 Noroeste 0 963.1 -- 93
2021-01-14 10:00:00 -3.7 0 Calma 4 Oeste 0 962.8 -- 93
2021-01-14 09:00:00 -3.9 0 Calma 14 Noroeste 0 962.6 -- 93
2021-01-14 08:00:00 -3.9 0 Calma 7 Noroeste 0 962.4 -- 93
2021-01-14 07:00:00 -4 0 Calma 4 Sur 0 962.3 -- 93
2021-01-14 06:00:00 -4.2 0 Calma 4 Sur 0 962.6 -- 93
2021-01-14 05:00:00 -4.3 3 Sudeste 5 Sudeste 0 962.6 -- 93
2021-01-14 04:00:00 -4.6 0 Calma 4 Este 0 962.9 -- 93
2021-01-14 03:00:00 -5 2 Nordeste 6 Nordeste 0 962.8 -- 92
2021-01-14 02:00:00 -5.5 3 Nordeste 5 Nordeste 0 962.8 -- 91
2021-01-14 01:00:00 -5.3 0 Calma 7 Norte 0 963.2 -- 91
2021-01-14 00:00:00 -4.6 2 Nordeste 5 Nordeste 0 963.6 -- 91
2021-01-13 23:00:00 -4.1 0 Calma 5 Nordeste 0 963.4 -- 90
2021-01-13 22:00:00 -3.3 0 Calma 7 Norte 0 963.1 -- 90
2021-01-13 21:00:00 -2.6 2 Nordeste 4 Este 0 962.8 -- 89
2021-01-13 20:00:00 -1.6 0 Calma 3 Este 0 962.7 -- 86
2021-01-13 19:00:00 0.1 0 Calma 4 Sur 0 962.4 -- 81
2021-01-13 18:00:00 2.9 2 Oeste 14 Sudoeste 0 962.2 -- 75
2021-01-13 17:00:00 4.8 2 Sudoeste 6 Este 0 962.3 -- 67
2021-01-13 16:00:00 4.7 0 Calma 6 Sudoeste 0 962.4 -- 70
2021-01-13 15:00:00 2.1 3 Sudoeste 9 Sudoeste 0 962.4 -- 75
2021-01-13 14:00:00 0.5 3 Sudoeste 6 Sudoeste 0 963.3 -- 83
2021-01-13 13:00:00 -1.5 4 Oeste 13 Sudoeste 0 964 -- 88
2021-01-13 12:00:00 -2.3 2 Sudeste 6 Noroeste 0 964.7 -- 91
2021-01-13 11:00:00 -3.5 2 Sudoeste 5 Sudoeste 0 964.7 -- 93
2021-01-13 10:00:00 -4.4 2 Oeste 7 Oeste 0 964.5 -- 93
2021-01-13 09:00:00 -4.5 2 Nordeste 5 Nordeste 0 963.9 -- 93
2021-01-13 08:00:00 -4.6 3 Este 5 Este 0 963.8 -- 93
2021-01-13 07:00:00 -5.3 2 Norte 11 Nordeste 0 963.5 -- 92
2021-01-13 06:00:00 -5.5 3 Nordeste 8 Nordeste 0 963.5 -- 92
2021-01-13 05:00:00 -5.4 4 Nordeste 9 Nordeste 0 963.6 -- 92
2021-01-13 04:00:00 -5.3 2 Este 6 Norte 0 963.2 -- 91
2021-01-13 03:00:00 -5.4 4 Nordeste 6 Nordeste 0 963.3 -- 91
2021-01-13 02:00:00 -4.9 0 Calma 9 Norte 0 963.2 -- 91
2021-01-13 01:00:00 -4.5 3 Nordeste 6 Nordeste 0 963.7 -- 91
2021-01-13 00:00:00 -3.8 2 Nordeste 6 Nordeste 0 964.1 -- 90
2021-01-12 23:00:00 -3.5 2 Este 6 Nordeste 0 963.8 -- 90
2021-01-12 22:00:00 -2.9 2 Norte 4 Nordeste 0 963.2 -- 89
2021-01-12 21:00:00 -2 0 Calma 8 Norte 0 962.9 -- 87
2021-01-12 20:00:00 -1 0 Calma 5 Nordeste 0 962.5 -- 84
2021-01-12 19:00:00 1 0 Calma 14 Oeste 0 962.2 -- 78
2021-01-12 18:00:00 4.1 3 Sur 13 Oeste 0 961.5 -- 67
2021-01-12 17:00:00 7 2 Sudoeste 7 Sur 0 961.4 -- 56
2021-01-12 16:00:00 6.8 3 Este 6 Sudeste 0 961.1 -- 58
2021-01-12 15:00:00 7 4 Sudeste 7 Sudeste 0 961.1 -- 53
2021-01-12 14:00:00 5.7 2 Este 8 Sudoeste 0 961.7 -- 57
2021-01-12 13:00:00 4.6 3 Sudeste 8 Sudeste 0 962.3 -- 60
2021-01-12 12:00:00 1.8 3 Sudoeste 14 Sudeste 0 962.6 -- 68
2021-01-12 11:00:00 -1.4 3 Oeste 9 Sudoeste 0 962.4 -- 86
2021-01-12 10:00:00 -2.6 3 Sur 13 Sudeste 0 961.9 -- 91
2021-01-12 09:00:00 -3.9 0 Calma 14 Sudeste 0 961.6 -- 92
2021-01-12 08:00:00 -5.2 0 Calma 14 Oeste 0 961.2 -- 92
2021-01-12 07:00:00 -5.2 0 Calma 13 Sudeste 0 960.7 -- 92
2021-01-12 06:00:00 -4.6 2 Noroeste 5 Sudoeste 0 960.7 -- 91
2021-01-12 05:00:00 -3.9 3 Oeste 16 Noroeste 0 960.6 -- 91
2021-01-12 04:00:00 -3 2 Norte 15 Oeste 0 960.2 -- 90
2021-01-12 03:00:00 -2.5 3 Oeste 6 Sudoeste 0 960 -- 89
2021-01-12 02:00:00 -1.5 3 Sudoeste 14 Sudeste 0 959.9 -- 87
2021-01-12 01:00:00 -0.4 0 Calma 49 Nordeste 0 960.1 -- 87
2021-01-12 00:00:00 -0.2 4 Sudeste 8 Sudeste 0 960.1 -- 85
2021-01-11 23:00:00 0.5 2 Oeste 7 Nordeste 0 959.9 -- 83
2021-01-11 22:00:00 0.6 2 Nordeste 6 Noroeste 0 959.8 -- 80
2021-01-11 21:00:00 0.7 3 Norte 17 Oeste 0 959.7 -- 81
2021-01-11 20:00:00 1.4 3 Norte 16 Norte 0 959.4 -- 80
2021-01-11 19:00:00 1.9 0 Calma 11 Sudeste 0 959 -- 79
2021-01-11 18:00:00 2.8 2 Norte 16 Norte 0 958.6 -- 70
2021-01-11 17:00:00 3.2 3 Noroeste 14 Norte 0 958.1 -- 70
2021-01-11 16:00:00 3 8 Norte 22 Norte 0 957.7 -- 73
2021-01-11 15:00:00 3 3 Sudoeste 17 Norte 0.2 957.4 -- 79
2021-01-11 14:00:00 2.8 8 Norte 20 Norte 0 957.6 -- 76
2021-01-11 13:00:00 3.4 11 Norte 23 Norte 0 958 -- 64
2021-01-11 12:00:00 3.2 5 Norte 17 Noroeste 0 958.3 -- 64
2021-01-11 11:00:00 2.4 6 Noroeste 15 Noroeste 0 957.7 -- 68
2021-01-11 10:00:00 1.8 4 Oeste 20 Norte 0 957 -- 68
2021-01-11 09:00:00 1.5 5 Noroeste 19 Norte 0 956.2 -- 68
2021-01-11 08:00:00 1 6 Oeste 19 Noroeste 0 955.8 -- 77
2021-01-11 07:00:00 1.3 8 Noroeste 21 Noroeste 0 955.3 -- 77
2021-01-11 06:00:00 1.7 7 Noroeste 22 Noroeste 0 955.1 -- 70
2021-01-11 05:00:00 1.8 6 Norte 22 Noroeste 0 955.1 -- 69
2021-01-11 04:00:00 1.6 5 Noroeste 29 Norte 0 954.9 -- 68
2021-01-11 03:00:00 1.7 10 Norte 32 Nordeste 0 954.4 -- 68
2021-01-11 02:00:00 2.1 17 Norte 35 Norte 0 954 -- 68
2021-01-11 01:00:00 2 8 Norte 32 Norte 0 954.4 -- 74
2021-01-11 00:00:00 2.4 16 Norte 34 Norte 0 954.1 -- 68
2021-01-10 23:00:00 2.3 14 Norte 31 Norte 0 953.9 -- 70
2021-01-10 22:00:00 2.1 11 Norte 28 Noroeste 0 953.5 -- 70
2021-01-10 21:00:00 2.2 14 Norte 33 Norte 0 953 -- 71
2021-01-10 20:00:00 2 14 Norte 36 Norte 0 952.4 -- 73
2021-01-10 19:00:00 1.8 10 Norte 33 Norte 0 951.9 -- 74
2021-01-10 18:00:00 1.6 17 Norte 34 Norte 0 951 -- 69
2021-01-10 17:00:00 2 14 Norte 39 Nordeste 0 950.4 -- 68
2021-01-10 16:00:00 2.3 18 Norte 36 Norte 0 949.7 -- 67
2021-01-10 15:00:00 2.9 15 Norte 37 Norte 0 949.3 -- 69
2021-01-10 14:00:00 2.5 12 Norte 27 Norte 0.2 949 -- 70
2021-01-10 13:00:00 2.6 8 Norte 30 Norte 0 949.2 -- 73
2021-01-10 12:00:00 2.1 10 Norte 30 Nordeste 0 949.4 -- 74
2021-01-10 11:00:00 1.8 12 Norte 29 Norte 0 948.7 -- 79
2021-01-10 10:00:00 1.5 12 Norte 37 Norte 0 947.5 -- 78
2021-01-10 09:00:00 0.8 5 Norte 24 Norte 0 947.1 -- 85
2021-01-10 08:00:00 0.7 6 Norte 16 Nordeste 0 946.5 -- 87
2021-01-10 07:00:00 0.2 2 Sudoeste 12 Sudeste 0 946.4 -- 89
2021-01-10 06:00:00 0.8 4 Norte 14 Norte 0 946.2 -- 86
2021-01-10 05:00:00 0.7 3 Norte 19 Noroeste 0 946.1 -- 87
2021-01-10 04:00:00 0.7 10 Norte 26 Norte 0.2 946.1 -- 86
2021-01-10 03:00:00 0.5 10 Nordeste 28 Nordeste 0 945.7 -- 86
2021-01-10 02:00:00 0.3 5 Norte 27 Nordeste 0 945.4 -- 87
2021-01-10 01:00:00 -0.3 4 Norte 23 Norte 0.2 945.3 -- 91
2021-01-10 00:00:00 -0.7 2 Oeste 8 Sur 0 945.6 -- 91
2021-01-09 23:00:00 -1 0 Calma 9 Oeste 0.6 945.2 -- 91
2021-01-09 22:00:00 -0.9 5 Sudoeste 9 Noroeste 0.6 944.6 -- 90
2021-01-09 21:00:00 -1 3 Noroeste 15 Noroeste 0.4 944.3 -- 90
2021-01-09 20:00:00 -0.8 4 Norte 9 Norte 0 943.8 -- 87
2021-01-09 19:00:00 -0.6 0 Calma 5 Este 0.2 943 -- 86
2021-01-09 18:00:00 -0.4 2 Sur 15 Oeste 0.2 942.6 -- 88
2021-01-09 17:00:00 0.1 2 Sur 13 Nordeste 0.6 941.9 -- 86
2021-01-09 16:00:00 0.2 9 Nordeste 17 Nordeste 0.4 941.3 -- 86
2021-01-09 15:00:00 0.3 9 Nordeste 28 Nordeste 0 941.2 -- 84
2021-01-09 14:00:00 0.8 6 Nordeste 21 Nordeste 0 941.4 -- 82
2021-01-09 13:00:00 0.6 8 Norte 17 Nordeste 0 942.3 -- 83
2021-01-09 12:00:00 0.3 6 Norte 15 Nordeste 0 943.2 -- 83
2021-01-09 11:00:00 0.1 9 Nordeste 15 Nordeste 0 943.3 -- 82
2021-01-09 10:00:00 -0.3 2 Nordeste 6 Norte 0 943.3 -- 82
2021-01-09 09:00:00 -0.6 3 Nordeste 12 Norte 0 943.2 -- 83
2021-01-09 08:00:00 -0.5 5 Norte 12 Nordeste 0 942.9 -- 82
2021-01-09 07:00:00 -0.8 0 Calma 5 Este 0 943 -- 82
2021-01-09 06:00:00 -0.9 2 Norte 6 Nordeste 0 943 -- 82
2021-01-09 05:00:00 -0.7 3 Noroeste 9 Noroeste 0 943.4 -- 81
2021-01-09 04:00:00 -0.7 2 Sur 12 Nordeste 0 943.4 -- 80
2021-01-09 03:00:00 -1.2 3 Sudoeste 14 Sudeste 0 943.4 -- 84
2021-01-09 02:00:00 -1.2 0 Calma 14 Sudeste 0 943.6 -- 81
2021-01-09 01:00:00 -1.5 3 Sudoeste 7 Sur 0 944.2 -- 83
2021-01-09 00:00:00 -2.3 2 Sudoeste 12 Este 0 944.5 -- 87
2021-01-08 23:00:00 -2.6 0 Calma 17 Norte 0 944.8 -- 88
2021-01-08 22:00:00 -3.3 2 Sur 13 Sudeste 0 944.9 -- 89
2021-01-08 21:00:00 -3.8 2 Oeste 14 Sudeste 0 945.2 -- 88
2021-01-08 20:00:00 -3.4 0 Calma 4 Sur 0 945 -- 87
2021-01-08 19:00:00 -2.5 0 Calma 6 Nordeste 0 944.8 -- 81
2021-01-08 18:00:00 -0.2 0 Calma 14 Sudeste 0 944.9 -- 73
2021-01-08 17:00:00 2.1 2 Oeste 15 Sudeste 0 944.9 -- 65
2021-01-08 16:00:00 2.1 3 Sudoeste 13 Sudeste 0 945.2 -- 64
2021-01-08 15:00:00 2.3 4 Nordeste 10 Norte 0 945.3 -- 64
2021-01-08 14:00:00 2.1 3 Nordeste 9 Sudoeste 0 946.4 -- 65
2021-01-08 13:00:00 0.6 0 Calma 14 Sudeste 0 947.3 -- 78
2021-01-08 12:00:00 -1.2 3 Noroeste 13 Sudeste 0 948 -- 84
2021-01-08 11:00:00 -3.3 2 Norte 11 Noroeste 0 948.6 -- 89
2021-01-08 10:00:00 -5.7 3 Nordeste 14 Sudeste 0 948.2 -- 91
2021-01-08 09:00:00 -5.7 2 Norte 14 Sudeste 0 947.7 -- 91
2021-01-08 08:00:00 -4.9 2 Norte 12 Sudeste 0 947.6 -- 92
2021-01-08 07:00:00 -4.8 2 Nordeste 7 Nordeste 0 947.7 -- 92
2021-01-08 06:00:00 -5.1 0 Calma 14 Sudeste 0 947.7 -- 92
2021-01-08 05:00:00 -4.8 3 Nordeste 13 Sudeste 0 947.9 -- 91
2021-01-08 04:00:00 -3.6 0 Calma 16 Noroeste 0 948.3 -- 92
2021-01-08 03:00:00 -3.9 3 Este 13 Sudeste 0 948.4 -- 92
2021-01-08 02:00:00 -4.3 0 Calma 14 Sudeste 0 948.4 -- 92
2021-01-08 01:00:00 -4.4 3 Norte 13 Sudeste 0 948.6 -- 92
2021-01-08 00:00:00 -4.6 0 Calma 13 Sudeste 0 948.8 -- 92
2021-01-07 23:00:00 -4.6 4 Noroeste 14 Sudeste 0 948.3 -- 93
2021-01-07 22:00:00 -4.6 3 Oeste 16 Noroeste 0 948.7 -- 93
2021-01-07 21:00:00 -4.5 3 Oeste 6 Noroeste 0 948.7 -- 93
2021-01-07 20:00:00 -4.5 3 Sudoeste 6 Oeste 0 948.4 -- 93
2021-01-07 19:00:00 -4.3 2 Este 8 Norte 0 948.2 -- 92
2021-01-07 18:00:00 -4.1 5 Este 13 Sudeste 0 948 -- 91
2021-01-07 17:00:00 -3.5 6 Sudeste 12 Sudeste 0 947.6 -- 89
2021-01-07 16:00:00 -2.8 3 Sur 7 Sur 0 947.1 -- 89
2021-01-07 15:00:00 -3.1 4 Sudoeste 9 Oeste 0 946.8 -- 89
2021-01-07 14:00:00 -3.4 3 Oeste 14 Noroeste 0 947.2 -- 91
2021-01-07 13:00:00 -3.4 3 Noroeste 13 Sudeste 0 947.8 -- 93
2021-01-07 12:00:00 -3.5 3 Noroeste 13 Sudeste 0 948.4 -- 93
2021-01-07 11:00:00 -3.9 3 Noroeste 10 Noroeste 0 948.3 -- 93
2021-01-07 10:00:00 -3.9 2 Sudeste 8 Sudeste 0 947.7 -- 93
2021-01-07 09:00:00 -3.8 3 Nordeste 12 Sudeste 0 947.2 -- 93
2021-01-07 08:00:00 -3.7 2 Nordeste 8 Oeste 0 946.9 -- 93
2021-01-07 07:00:00 -3.4 5 Sudoeste 15 Oeste 0 946.6 -- 93
2021-01-07 06:00:00 -3.3 2 Este 6 Nordeste 0 946.5 -- 93
2021-01-07 05:00:00 -3.5 4 Nordeste 13 Norte 0 946.7 -- 93
2021-01-07 04:00:00 -3.3 0 Calma 5 Sudeste 0 946.9 -- 93
2021-01-07 03:00:00 -3.9 2 Nordeste 13 Norte 0 946.8 -- 93
2021-01-07 02:00:00 -3.8 3 Norte 6 Este 0 947 -- 93
2021-01-07 01:00:00 -4.2 4 Nordeste 13 Sudeste 0 947.3 -- 93
2021-01-07 00:00:00 -4.6 3 Nordeste 14 Noroeste 0 947.3 -- 93
2021-01-06 23:00:00 -4.9 4 Oeste 7 Sudoeste 0 947.6 -- 92
2021-01-06 22:00:00 -3.1 2 Nordeste 5 Noroeste 0 947.5 -- 92
2021-01-06 21:00:00 -3.2 2 Este 4 Nordeste 0 947.7 -- 91
2021-01-06 20:00:00 -2.4 0 Calma 12 Noroeste 0 947.4 -- 89
2021-01-06 19:00:00 -1.1 0 Calma 4 Nordeste 0 946.7 -- 85
2021-01-06 18:00:00 1.4 2 Sudeste 13 Sudeste 0 946.3 -- 78
2021-01-06 17:00:00 4.1 6 Sudeste 13 Sudeste 0 946.1 -- 68
2021-01-06 16:00:00 7.2 4 Sur 12 Oeste 0 946 -- 57
2021-01-06 15:00:00 5.4 5 Sudeste 9 Sur 0 946.1 -- 65
2021-01-06 14:00:00 5.2 3 Sudeste 10 Sudeste 0 946.4 -- 67
2021-01-06 13:00:00 4.4 5 Sudeste 8 Sudeste 0 946.9 -- 72
2021-01-06 12:00:00 2.6 5 Sudeste 9 Sudeste 0 947.3 -- 82
2021-01-06 11:00:00 0.7 3 Oeste 5 Noroeste 0.2 947.2 -- 92
2021-01-06 10:00:00 -0.3 2 Este 5 Nordeste 0 947 -- 93
2021-01-06 09:00:00 -0.8 0 Calma 4 Este 0 946.3 -- 93
2021-01-06 08:00:00 -0.5 3 Sur 6 Nordeste 0 945.8 -- 93
2021-01-06 07:00:00 -0.4 2 Norte 3 Norte 0 945.4 -- 93
2021-01-06 06:00:00 -0.2 2 Nordeste 6 Sudeste 0 945.1 -- 93
2021-01-06 05:00:00 -0.2 0 Calma 8 Oeste 0 945.2 -- 93
2021-01-06 04:00:00 -0.2 0 Calma 5 Oeste 0 945.5 -- 93
2021-01-06 03:00:00 -0.2 0 Calma 5 Sudoeste 0 945.2 -- 93
2021-01-06 02:00:00 -0.2 5 Nordeste 9 Norte 0 945.1 -- 93
2021-01-06 01:00:00 -0.3 0 Calma 4 Este 0 945.2 -- 93
2021-01-06 00:00:00 -0.3 0 Calma 4 Este 0 945.3 -- 93
2021-01-05 23:00:00 -0.4 2 Sudoeste 14 Noroeste 0 945.3 -- 92
2021-01-05 22:00:00 -0.6 0 Calma 5 Oeste 0 945.2 -- 92
2021-01-05 21:00:00 -0.6 3 Noroeste 6 Oeste 0 945 -- 91
2021-01-05 20:00:00 -0.5 0 Calma 4 Oeste 0 944.8 -- 90
2021-01-05 19:00:00 0.4 0 Calma 17 Nordeste 0 944.2 -- 88
2021-01-05 18:00:00 1.1 4 Nordeste 7 Nordeste 0 944.1 -- 83
2021-01-05 17:00:00 2.3 3 Este 7 Sudeste 0 943.9 -- 78
2021-01-05 16:00:00 3.2 4 Sudeste 12 Sur 0 943.6 -- 76
2021-01-05 15:00:00 2.5 2 Sur 12 Sur 0 943.6 -- 80
2021-01-05 14:00:00 1.9 6 Sur 11 Sudeste 0 943.9 -- 82
2021-01-05 13:00:00 2.2 5 Sudeste 10 Sudeste 0 944.5 -- 82
2021-01-05 12:00:00 1.2 4 Sudeste 7 Sudeste 0.4 944.8 -- 89
2021-01-05 11:00:00 0.1 4 Sudeste 9 Sur 0 944.7 -- 93
2021-01-05 10:00:00 -0.8 3 Sudeste 5 Sur 0.2 944.3 -- 94
2021-01-05 09:00:00 -1.2 3 Sudoeste 8 Sudeste 0 943.9 -- 94
2021-01-05 08:00:00 -1.4 5 Sur 9 Sudeste 0.4 943.6 -- 94
2021-01-05 07:00:00 -1.7 5 Sudeste 11 Sur 0.2 943.3 -- 94
2021-01-05 06:00:00 -1.4 5 Sudeste 8 Sur 0 943.3 -- 93
2021-01-05 05:00:00 -1.2 3 Sudeste 15 Noroeste 0.2 943.4 -- 94
2021-01-05 04:00:00 -2 3 Nordeste 6 Nordeste 0.2 943.6 -- 94
2021-01-05 03:00:00 -3.1 2 Este 6 Sudoeste 0 943.5 -- 94
2021-01-05 02:00:00 -2.9 2 Sudeste 5 Este 0 943.5 -- 93
2021-01-05 01:00:00 -3.1 0 Calma 14 Sudeste 0 943.6 -- 93
2021-01-05 00:00:00 -2.2 4 Sudeste 15 Noroeste 0 943.7 -- 93
2021-01-04 23:00:00 -3.1 0 Calma 13 Noroeste 0 943.9 -- 93
2021-01-04 22:00:00 -1.3 0 Calma 14 Sudeste 0 943.8 -- 92
2021-01-04 21:00:00 -0.9 0 Calma 8 Nordeste 0 943.7 -- 92
2021-01-04 20:00:00 0 0 Calma 5 Norte 0 943.4 -- 92
2021-01-04 19:00:00 -0.1 0 Calma 14 Sudeste 0.6 943.2 -- 91
2021-01-04 18:00:00 0.5 6 Oeste 13 Noroeste 0.8 942.9 -- 90
2021-01-04 17:00:00 1 3 Norte 20 Noroeste 0.4 942.5 -- 88
2021-01-04 16:00:00 2.1 10 Oeste 25 Noroeste 0.2 942 -- 79
2021-01-04 15:00:00 2.8 5 Oeste 21 Oeste 0.4 941.6 -- 78
2021-01-04 14:00:00 2.4 7 Oeste 19 Sudoeste 0 941.7 -- 78
2021-01-04 13:00:00 1.1 8 Oeste 22 Oeste 0.2 942.1 -- 82
2021-01-04 12:00:00 0.4 8 Oeste 17 Oeste 0.4 942.5 -- 84
2021-01-04 11:00:00 -0.1 4 Sudoeste 22 Oeste 0.6 942.4 -- 88
2021-01-04 10:00:00 -0.6 10 Oeste 17 Oeste 1.2 942.2 -- 90
2021-01-04 09:00:00 -0.7 6 Oeste 18 Oeste 0 941.7 -- 87
2021-01-04 08:00:00 -0.7 9 Oeste 22 Sudoeste 0 941.4 -- 81
2021-01-04 07:00:00 -1 6 Oeste 18 Oeste 0 941.2 -- 83
2021-01-04 06:00:00 -0.8 6 Sudoeste 14 Oeste 0.2 941.5 -- 88
2021-01-04 05:00:00 -1 3 Sudeste 15 Noroeste 0 942 -- 90
2021-01-04 04:00:00 -0.2 3 Sur 21 Oeste 0.2 942.3 -- 88
2021-01-04 03:00:00 -0.4 3 Norte 20 Sudoeste 0 942.6 -- 85
2021-01-04 02:00:00 -0.3 9 Oeste 21 Oeste 0 942.6 -- 86
2021-01-04 01:00:00 0.4 12 Oeste 24 Oeste 0 943.1 -- 84
2021-01-04 00:00:00 0.5 11 Sudoeste 26 Sudoeste 0 943.4 -- 89
2021-01-03 23:00:00 0.2 0 Calma 13 Sudeste 0 943.9 -- 87
2021-01-03 22:00:00 0.6 5 Noroeste 19 Noroeste 0 944.1 -- 86
2021-01-03 21:00:00 0.7 3 Noroeste 19 Noroeste 0 944.1 -- 82
2021-01-03 20:00:00 1.4 4 Oeste 24 Noroeste 0 944.2 -- 80
2021-01-03 19:00:00 2 12 Oeste 23 Noroeste 0.2 943.8 -- 78
2021-01-03 18:00:00 1.7 0 Calma 8 Sudeste 0 944 -- 84
2021-01-03 17:00:00 2.1 3 Este 9 Noroeste 0 944 -- 84
2021-01-03 16:00:00 3 3 Norte 16 Oeste 0 944.1 -- 78
2021-01-03 15:00:00 4.1 8 Sudoeste 17 Oeste 0 944.4 -- 65
2021-01-03 14:00:00 5.7 8 Sudoeste 14 Oeste 0 944.8 -- 62
2021-01-03 13:00:00 3.6 7 Sudoeste 15 Oeste 0 945.7 -- 78
2021-01-03 12:00:00 2 6 Sudeste 13 Sudeste 0.2 946.3 -- 87
2021-01-03 11:00:00 1.2 5 Sur 18 Sudoeste 0.2 946.2 -- 93
2021-01-03 10:00:00 0.1 2 Nordeste 12 Sudeste 0 946.4 -- 94
2021-01-03 09:00:00 -0.7 6 Sudeste 13 Sudeste 0.4 946.3 -- 94
2021-01-03 08:00:00 -0.7 5 Sur 10 Sudeste 0.4 946.1 -- 94
2021-01-03 07:00:00 -1.5 6 Sur 10 Sudeste 0.8 946.4 -- 94
2021-01-03 06:00:00 -1.9 0 Calma 8 Sudeste 0 946.7 -- 94
2021-01-03 05:00:00 -1.9 3 Oeste 7 Sudeste 0 947.2 -- 93
2021-01-03 04:00:00 -1.6 0 Calma 14 Sudeste 0 947.6 -- 93
2021-01-03 03:00:00 -1.5 0 Calma 7 Nordeste 0 947.7 -- 93
2021-01-03 02:00:00 -1.2 3 Norte 6 Nordeste 0.4 948.2 -- 92
2021-01-03 01:00:00 -1 4 Nordeste 5 Nordeste 0 948.5 -- 92
2021-01-03 00:00:00 -1.1 0 Calma 5 Nordeste 0 948.7 -- 91
2021-01-02 23:00:00 -1.2 0 Calma 15 Oeste 0 948.9 -- 89
2021-01-02 22:00:00 -0.5 0 Calma 6 Oeste 0 948.9 -- 87
2021-01-02 21:00:00 -0.1 2 Norte 11 Noroeste 0 948.9 -- 89
2021-01-02 20:00:00 -0.4 0 Calma 5 Sudeste 0 948.7 -- 90
2021-01-02 19:00:00 -0.6 0 Calma 6 Oeste 0 948.6 -- 88
2021-01-02 18:00:00 1 2 Sudeste 19 Norte 0 948.3 -- 82
2021-01-02 17:00:00 1.7 6 Norte 39 Norte 0 948.2 -- 83
2021-01-02 16:00:00 2.1 2 Oeste 16 Norte 0.4 947.8 -- 84
2021-01-02 15:00:00 2.3 3 Noroeste 30 Noroeste 1.6 947.6 -- 82
2021-01-02 14:00:00 3.9 3 Este 36 Norte 6 947.6 -- 71